Time;durP1;ratioP1;P1;durP2;ratioP2;P2;SDS_P1;SDS_P2;PMS_P1;PMS_P2;Temp;Humidity;BMP_temperature;BMP_pressure;BME280_temperature;BME280_humidity;BME280_pressure;Samples;Min_cycle;Max_cycle;Signal;HPM_P1;HPM_P2
2024/01/02 05:10:00;;;;;;;0.30;0.30;;;7.90;99.90;;;;;;4935727;29;20616;-63
2024/01/02 05:12:26;;;;;;;0.30;0.30;;;7.90;99.90;;;;;;4936545;29;20649;-64
2024/01/02 05:14:52;;;;;;;0.30;0.30;;;7.90;99.90;;;;;;4936349;29;20169;-66
2024/01/02 05:17:17;;;;;;;0.30;0.30;;;7.90;99.90;;;;;;4936495;29;20188;-64
2024/01/02 05:19:43;;;;;;;0.30;0.20;;;7.90;99.90;;;;;;4936282;29;20177;-65
2024/01/02 05:22:09;;;;;;;0.30;0.30;;;7.90;99.90;;;;;;4936515;29;20649;-64
2024/01/02 05:24:34;;;;;;;0.30;0.30;;;8.00;99.90;;;;;;4936110;29;20647;-64
2024/01/02 05:27:00;;;;;;;0.30;0.30;;;8.00;99.90;;;;;;4936002;29;20189;-64
2024/01/02 05:29:25;;;;;;;0.33;0.33;;;8.00;99.90;;;;;;4936138;29;20550;-64
2024/01/02 05:31:51;;;;;;;0.30;0.30;;;8.00;99.90;;;;;;4936058;29;20291;-65
2024/01/02 05:34:16;;;;;;;0.30;0.30;;;8.00;99.90;;;;;;4935833;29;20617;-66
2024/01/02 05:36:44;;;;;;;0.40;0.40;;;8.00;99.90;;;;;;4935711;29;20208;-65
2024/01/02 05:39:09;;;;;;;0.30;0.30;;;8.00;99.90;;;;;;4935670;29;20169;-65
2024/01/02 05:41:35;;;;;;;0.30;0.30;;;8.00;99.90;;;;;;4936154;29;20174;-66
2024/01/02 05:44:01;;;;;;;0.30;0.30;;;8.00;99.90;;;;;;4935968;29;20241;-64
2024/01/02 05:46:26;;;;;;;0.30;0.30;;;8.00;99.90;;;;;;4935770;29;20200;-65
2024/01/02 05:48:52;;;;;;;0.27;0.27;;;8.00;99.90;;;;;;4936037;29;20170;-65
2024/01/02 05:51:18;;;;;;;0.30;0.30;;;8.00;99.90;;;;;;4936040;29;20263;-63
2024/01/02 05:53:43;;;;;;;0.30;0.30;;;8.00;99.90;;;;;;4935978;29;20174;-64
2024/01/02 05:56:12;;;;;;;0.30;0.30;;;8.00;99.90;;;;;;4935448;29;20212;-64
2024/01/02 05:58:38;;;;;;;0.30;0.30;;;8.00;99.90;;;;;;4934609;29;20630;-63
2024/01/02 06:01:03;;;;;;;0.30;0.30;;;8.00;99.90;;;;;;4936330;29;20182;-65
2024/01/02 06:03:29;;;;;;;0.30;0.30;;;8.00;99.90;;;;;;4935876;29;20185;-65
2024/01/02 06:05:54;;;;;;;0.40;0.40;;;8.00;99.90;;;;;;4934191;29;20296;-65
2024/01/02 06:08:21;;;;;;;0.30;0.30;;;8.00;99.90;;;;;;4934797;29;20173;-66
2024/01/02 06:10:46;;;;;;;0.20;0.20;;;8.00;99.90;;;;;;4927123;29;20672;-64
2024/01/02 06:13:13;;;;;;;0.40;0.40;;;8.00;99.90;;;;;;4917473;29;20274;-65
2024/01/02 06:15:39;;;;;;;0.40;0.40;;;8.00;99.90;;;;;;4935350;29;20194;-65
2024/01/02 06:18:05;;;;;;;0.20;0.20;;;8.00;99.90;;;;;;4938829;29;20177;-62
2024/01/02 06:20:31;;;;;;;0.30;0.30;;;8.00;99.90;;;;;;4939639;29;20196;-63
2024/01/02 06:22:57;;;;;;;0.30;0.30;;;8.00;99.90;;;;;;4939501;29;20170;-64
2024/01/02 06:25:22;;;;;;;0.40;0.40;;;8.10;99.90;;;;;;4938879;29;20239;-64
2024/01/02 06:27:48;;;;;;;0.30;0.30;;;8.10;99.90;;;;;;4939213;29;20190;-63
2024/01/02 06:30:14;;;;;;;0.30;0.30;;;8.10;99.90;;;;;;4938960;29;20229;-64
2024/01/02 06:32:39;;;;;;;0.30;0.30;;;8.10;99.90;;;;;;4939404;29;20174;-65
2024/01/02 06:35:05;;;;;;;0.30;0.30;;;8.10;99.90;;;;;;4938165;29;20264;-65
2024/01/02 06:37:30;;;;;;;0.30;0.30;;;8.10;99.90;;;;;;4939257;29;20506;-64
2024/01/02 06:39:57;;;;;;;0.30;0.30;;;8.10;99.90;;;;;;4939214;29;20417;-64
2024/01/02 06:42:22;;;;;;;0.30;0.30;;;8.10;99.90;;;;;;4939152;29;20174;-64
2024/01/02 06:44:48;;;;;;;0.30;0.30;;;8.10;99.90;;;;;;4938650;29;20665;-65
2024/01/02 06:47:14;;;;;;;0.37;0.37;;;8.20;99.90;;;;;;4938901;29;20537;-64
2024/01/02 06:49:39;;;;;;;0.30;0.30;;;8.20;99.90;;;;;;4938527;29;20232;-64
2024/01/02 06:52:05;;;;;;;0.30;0.30;;;8.20;99.90;;;;;;4939014;29;20181;-64
2024/01/02 06:54:31;;;;;;;0.30;0.30;;;8.20;99.90;;;;;;4938311;29;20196;-65
2024/01/02 06:56:58;;;;;;;0.30;0.30;;;8.20;99.90;;;;;;4938600;29;20248;-64
2024/01/02 06:59:24;;;;;;;0.30;0.30;;;8.30;99.90;;;;;;4938768;29;20261;-64
2024/01/02 07:01:50;;;;;;;0.20;0.20;;;8.30;99.90;;;;;;4937323;29;20177;-65
2024/01/02 07:04:16;;;;;;;0.30;0.30;;;8.40;99.90;;;;;;4932277;29;20182;-64
2024/01/02 07:06:41;;;;;;;0.30;0.30;;;8.40;99.90;;;;;;4919461;29;20198;-64
2024/01/02 07:09:07;;;;;;;0.30;0.30;;;8.40;99.90;;;;;;4919633;29;20591;-65
2024/01/02 07:11:32;;;;;;;0.30;0.30;;;8.40;99.90;;;;;;4919214;29;20213;-64
2024/01/02 07:13:58;;;;;;;0.30;0.30;;;8.40;99.90;;;;;;4919405;29;20182;-65
2024/01/02 07:16:24;;;;;;;0.30;0.30;;;8.40;99.90;;;;;;4919063;29;20508;-64
2024/01/02 07:18:50;;;;;;;0.30;0.20;;;8.50;99.90;;;;;;4922511;29;20212;-65
2024/01/02 07:21:15;;;;;;;0.20;0.20;;;8.50;99.90;;;;;;4938030;29;20448;-64
2024/01/02 07:23:41;;;;;;;0.30;0.30;;;8.50;99.90;;;;;;4938324;29;20246;-64
2024/01/02 07:26:07;;;;;;;0.30;0.30;;;8.60;99.90;;;;;;4937846;29;20661;-64
2024/01/02 07:28:33;;;;;;;0.30;0.30;;;8.60;99.90;;;;;;4937862;29;20177;-65
2024/01/02 07:30:58;;;;;;;0.30;0.30;;;8.70;99.90;;;;;;4938072;29;20255;-64
2024/01/02 07:33:24;;;;;;;0.30;0.30;;;8.70;99.90;;;;;;4937575;29;20165;-64
2024/01/02 07:35:49;;;;;;;0.27;0.23;;;8.70;99.90;;;;;;4921492;29;20272;-64
2024/01/02 07:38:15;;;;;;;0.30;0.30;;;8.80;99.90;;;;;;4918959;29;20211;-65
2024/01/02 07:40:41;;;;;;;0.30;0.30;;;8.80;99.90;;;;;;4919138;29;20574;-65
2024/01/02 07:43:30;;;;;;;0.30;0.30;;;8.80;99.90;;;;;;4917584;29;20653;-65
2024/01/02 07:45:56;;;;;;;0.30;0.30;;;8.80;99.90;;;;;;4918435;29;20274;-64
2024/01/02 07:48:21;;;;;;;0.30;0.30;;;8.80;99.90;;;;;;4918907;29;20175;-65
2024/01/02 07:50:47;;;;;;;0.30;0.20;;;8.80;99.90;;;;;;4918824;29;20470;-65
2024/01/02 07:53:19;;;;;;;0.30;0.30;;;8.80;99.90;;;;;;4918671;29;20177;-64
2024/01/02 07:55:48;;;;;;;0.30;0.30;;;8.90;99.90;;;;;;4918395;29;20221;-64
2024/01/02 07:58:14;;;;;;;0.30;0.30;;;8.90;99.90;;;;;;4917447;29;20175;-64
2024/01/02 08:00:40;;;;;;;0.30;0.30;;;8.90;99.90;;;;;;4918915;29;20170;-63
2024/01/02 08:03:05;;;;;;;0.30;0.30;;;8.90;99.90;;;;;;4921661;29;20421;-63
2024/01/02 08:05:31;;;;;;;0.30;0.20;;;8.90;99.90;;;;;;4937304;29;20429;-65
2024/01/02 08:07:57;;;;;;;0.30;0.30;;;8.90;99.90;;;;;;4938829;29;20554;-66
2024/01/02 08:10:22;;;;;;;0.30;0.30;;;8.90;99.90;;;;;;4937551;29;20288;-63
2024/01/02 08:12:48;;;;;;;0.20;0.20;;;8.90;99.90;;;;;;4937390;29;20177;-65
2024/01/02 08:15:14;;;;;;;0.30;0.30;;;8.90;99.90;;;;;;4936897;29;20194;-63
2024/01/02 08:17:40;;;;;;;0.28;0.25;;;8.90;99.90;;;;;;4936764;29;20170;-65
2024/01/02 08:20:06;;;;;;;0.30;0.30;;;8.90;99.90;;;;;;4937604;29;20236;-65
2024/01/02 08:22:31;;;;;;;0.30;0.30;;;8.90;99.90;;;;;;4937550;29;20420;-65
2024/01/02 08:24:58;;;;;;;0.40;0.40;;;8.90;99.90;;;;;;4936649;29;20181;-65
2024/01/02 08:27:25;;;;;;;0.30;0.30;;;8.90;99.90;;;;;;4937186;29;20170;-65
2024/01/02 08:29:51;;;;;;;0.30;0.30;;;8.90;99.90;;;;;;4937223;29;20170;-65
2024/01/02 08:32:17;;;;;;;0.30;0.30;;;8.90;99.90;;;;;;4934825;29;20178;-64
2024/01/02 08:34:43;;;;;;;0.30;0.30;;;8.90;99.90;;;;;;4917604;29;20170;-64
2024/01/02 08:37:09;;;;;;;0.30;0.30;;;8.90;99.90;;;;;;4917844;29;20203;-64
2024/01/02 08:39:34;;;;;;;0.30;0.30;;;8.90;99.90;;;;;;4922863;29;20181;-65
2024/01/02 08:42:00;;;;;;;0.30;0.30;;;8.90;99.90;;;;;;4936313;29;20200;-65
2024/01/02 08:44:26;;;;;;;0.30;0.30;;;8.90;99.90;;;;;;4935365;29;20181;-65
2024/01/02 08:46:52;;;;;;;0.30;0.30;;;8.90;99.90;;;;;;4936646;29;20441;-65
2024/01/02 08:49:18;;;;;;;0.30;0.30;;;9.00;99.90;;;;;;4937271;29;20413;-65
2024/01/02 08:51:44;;;;;;;0.30;0.30;;;9.00;99.90;;;;;;4936901;29;20508;-65
2024/01/02 08:54:09;;;;;;;0.30;0.30;;;9.00;99.90;;;;;;4930390;29;20171;-71
2024/01/02 08:56:35;;;;;;;0.30;0.30;;;9.00;99.90;;;;;;4916382;29;20681;-65
2024/01/02 08:59:02;;;;;;;0.30;0.30;;;9.00;99.90;;;;;;4916437;29;20170;-65
2024/01/02 09:01:28;;;;;;;0.40;0.40;;;9.10;99.90;;;;;;4917664;29;20205;-66
2024/01/02 09:03:54;;;;;;;0.30;0.20;;;9.10;99.90;;;;;;4917568;29;20584;-64
2024/01/02 09:06:19;;;;;;;0.30;0.30;;;9.10;99.90;;;;;;4917173;29;20835;-65
2024/01/02 09:08:46;;;;;;;0.30;0.30;;;9.20;99.90;;;;;;4921515;29;20177;-65
2024/01/02 09:11:12;;;;;;;0.30;0.30;;;9.20;99.90;;;;;;4936136;29;20890;-64
2024/01/02 09:13:38;;;;;;;0.30;0.30;;;9.30;99.90;;;;;;4936470;29;20175;-65
2024/01/02 09:16:04;;;;;;;0.30;0.20;;;9.30;99.90;;;;;;4934596;29;20740;-64
2024/01/02 09:18:30;;;;;;;0.30;0.20;;;9.30;99.90;;;;;;4936721;29;20493;-64
2024/01/02 09:20:57;;;;;;;0.30;0.20;;;9.30;99.90;;;;;;4934984;29;20268;-64
2024/01/02 09:23:22;;;;;;;0.30;0.30;;;9.40;99.90;;;;;;4934682;29;20182;-65
2024/01/02 09:25:50;;;;;;;0.30;0.30;;;9.40;99.90;;;;;;4935643;29;20715;-65
2024/01/02 09:28:18;;;;;;;0.30;0.30;;;9.40;99.90;;;;;;4936256;29;20181;-65
2024/01/02 09:30:44;;;;;;;0.30;0.30;;;9.40;99.90;;;;;;4936065;29;20194;-64
2024/01/02 09:33:10;;;;;;;0.30;0.30;;;9.50;99.90;;;;;;4936163;29;20173;-65
2024/01/02 09:35:36;;;;;;;0.30;0.30;;;9.50;99.90;;;;;;4935656;29;20457;-65
2024/01/02 09:38:04;;;;;;;0.30;0.20;;;9.60;99.90;;;;;;4933442;29;20416;-65
2024/01/02 09:40:52;;;;;;;0.30;0.30;;;9.60;99.90;;;;;;4915795;29;20180;-65
2024/01/02 09:43:26;;;;;;;0.30;0.30;;;9.70;99.90;;;;;;4917230;29;20174;-65
2024/01/02 09:45:55;;;;;;;0.30;0.20;;;9.70;99.90;;;;;;4915559;29;20203;-65
2024/01/02 09:48:33;;;;;;;0.30;0.30;;;9.80;99.90;;;;;;4917112;29;20171;-64
2024/01/02 09:51:32;;;;;;;0.30;0.30;;;9.80;99.90;;;;;;4917652;29;20547;-66
2024/01/02 09:54:14;;;;;;;0.30;0.30;;;9.90;99.90;;;;;;4932371;29;20639;-64
2024/01/02 09:57:14;;;;;;;0.30;0.30;;;10.00;99.90;;;;;;4921448;29;20222;-65
2024/01/02 10:00:01;;;;;;;0.38;0.38;;;10.00;99.90;;;;;;4920951;29;20181;-65
2024/01/02 10:02:51;;;;;;;0.30;0.30;;;10.10;99.90;;;;;;4920839;29;20178;-64
2024/01/02 10:05:44;;;;;;;0.30;0.30;;;10.10;99.90;;;;;;4920271;29;20226;-65
2024/01/02 10:08:16;;;;;;;0.30;0.30;;;10.20;99.90;;;;;;4928341;29;20502;-64
2024/01/02 10:11:09;;;;;;;0.30;0.30;;;10.30;99.90;;;;;;4939440;29;20207;-65
2024/01/02 10:13:43;;;;;;;0.30;0.30;;;10.30;99.90;;;;;;4939485;29;20227;-65
2024/01/02 10:16:31;;;;;;;0.30;0.30;;;10.30;99.90;;;;;;4938940;29;20234;-65
2024/01/02 10:19:00;;;;;;;0.30;0.30;;;10.40;99.90;;;;;;4939814;29;20382;-65
2024/01/02 10:21:40;;;;;;;0.30;0.27;;;10.40;99.90;;;;;;4939400;29;20523;-64
2024/01/02 10:24:44;;;;;;;0.30;0.30;;;10.50;99.90;;;;;;4939411;29;20383;-65
2024/01/02 10:27:14;;;;;;;0.30;0.30;;;10.50;99.90;;;;;;4934680;29;20213;-65
2024/01/02 10:29:42;;;;;;;0.30;0.30;;;10.60;99.90;;;;;;4929782;29;20441;-65
2024/01/02 10:32:21;;;;;;;0.30;0.30;;;10.60;99.90;;;;;;4918929;29;20781;-64
2024/01/02 10:35:05;;;;;;;0.30;0.20;;;10.70;99.90;;;;;;4919990;29;20426;-65
2024/01/02 10:37:40;;;;;;;0.30;0.20;;;10.70;99.90;;;;;;4920296;29;20451;-65
2024/01/02 10:40:07;;;;;;;0.37;0.37;;;10.70;99.90;;;;;;4927321;29;20407;-64
2024/01/02 10:43:07;;;;;;;0.30;0.30;;;10.80;99.90;;;;;;4939167;29;20402;-64
2024/01/02 10:45:52;;;;;;;0.30;0.20;;;10.80;99.90;;;;;;4938672;29;20439;-66
2024/01/02 10:48:17;;;;;;;0.30;0.30;;;10.80;99.90;;;;;;4937729;29;20414;-65
2024/01/02 10:50:57;;;;;;;0.30;0.30;;;10.90;99.90;;;;;;4938821;29;20465;-65
2024/01/02 10:53:35;;;;;;;0.30;0.30;;;10.80;99.90;;;;;;4937719;29;20181;-64
2024/01/02 10:56:13;;;;;;;0.30;0.30;;;10.90;99.90;;;;;;4938031;29;20441;-65
2024/01/02 10:58:57;;;;;;;0.40;0.40;;;10.90;99.90;;;;;;4938893;29;20192;-65
2024/01/02 11:01:25;;;;;;;0.30;0.30;;;10.80;99.90;;;;;;4938750;29;20462;-66
2024/01/02 11:04:00;;;;;;;0.30;0.20;;;10.90;99.90;;;;;;4936507;29;20422;-64
2024/01/02 11:06:34;;;;;;;0.30;0.20;;;10.90;99.90;;;;;;4938257;29;20441;-66
2024/01/02 11:09:07;;;;;;;0.30;0.30;;;10.90;99.90;;;;;;4938310;29;20447;-64
2024/01/02 11:11:37;;;;;;;0.30;0.30;;;11.00;99.90;;;;;;4938414;29;20463;-65
2024/01/02 11:14:05;;;;;;;0.30;0.30;;;11.00;99.90;;;;;;4938635;29;20180;-65
2024/01/02 11:16:32;;;;;;;0.30;0.30;;;11.00;99.90;;;;;;4938134;29;20442;-65
2024/01/02 11:18:59;;;;;;;0.30;0.30;;;11.10;99.90;;;;;;4937988;29;20403;-66
2024/01/02 11:21:44;;;;;;;0.30;0.20;;;11.10;99.90;;;;;;4937096;29;20936;-65
2024/01/02 11:24:16;;;;;;;0.30;0.30;;;11.20;99.90;;;;;;4938461;29;20404;-72
2024/01/02 11:26:44;;;;;;;0.30;0.30;;;11.20;99.90;;;;;;4938219;29;20436;-64
2024/01/02 11:29:18;;;;;;;0.30;0.30;;;11.20;99.90;;;;;;4938400;29;20408;-63
2024/01/02 11:31:48;;;;;;;0.30;0.30;;;11.20;99.90;;;;;;4938520;29;20966;-64
2024/01/02 11:34:33;;;;;;;0.30;0.20;;;11.20;99.90;;;;;;4918808;29;20411;-66
2024/01/02 11:37:05;;;;;;;0.30;0.30;;;11.20;99.90;;;;;;4919117;29;20439;-65
2024/01/02 11:39:42;;;;;;;0.30;0.30;;;11.30;99.90;;;;;;4919145;29;20451;-64
2024/01/02 11:42:34;;;;;;;0.30;0.30;;;11.30;99.90;;;;;;4917966;29;20424;-64
2024/01/02 11:45:32;;;;;;;0.30;0.30;;;11.30;99.90;;;;;;4918648;29;20448;-64
2024/01/02 11:48:14;;;;;;;0.30;0.30;;;11.30;99.90;;;;;;4929205;29;20432;-65
2024/01/02 11:50:52;;;;;;;0.40;0.40;;;11.30;99.90;;;;;;4937480;29;20438;-65
2024/01/02 11:53:59;;;;;;;0.30;0.30;;;11.30;99.90;;;;;;4937901;29;20411;-65
2024/01/02 11:56:28;;;;;;;0.30;0.30;;;11.30;99.90;;;;;;4937281;29;20491;-64
2024/01/02 11:59:09;;;;;;;0.30;0.30;;;11.30;99.90;;;;;;4937649;29;20412;-67
2024/01/02 12:02:02;;;;;;;0.30;0.30;;;11.40;99.90;;;;;;4935749;29;20416;-65
2024/01/02 12:04:36;;;;;;;0.30;0.30;;;11.40;99.90;;;;;;4937419;29;20783;-65
2024/01/02 12:07:10;;;;;;;0.30;0.30;;;11.40;99.90;;;;;;4937306;29;20485;-65
2024/01/02 12:09:48;;;;;;;0.30;0.30;;;11.30;99.90;;;;;;4937654;29;20419;-65
2024/01/02 12:12:52;;;;;;;0.30;0.30;;;11.30;99.90;;;;;;4937477;29;20423;-65
2024/01/02 12:15:30;;;;;;;0.30;0.30;;;11.20;99.90;;;;;;4936941;29;20438;-66
2024/01/02 12:18:02;;;;;;;0.30;0.30;;;11.20;99.90;;;;;;4922495;29;20409;-65
2024/01/02 12:20:35;;;;;;;0.30;0.20;;;11.20;99.90;;;;;;4918360;29;20417;-64
2024/01/02 12:23:01;;;;;;;0.30;0.30;;;11.20;99.90;;;;;;4918334;29;20410;-65
2024/01/02 12:25:27;;;;;;;0.30;0.30;;;11.20;99.90;;;;;;4925147;29;20435;-65
2024/01/02 12:27:54;;;;;;;0.30;0.30;;;11.20;99.90;;;;;;4935918;29;20435;-65
2024/01/02 12:30:38;;;;;;;0.30;0.20;;;11.20;99.90;;;;;;4937011;29;20711;-65
2024/01/02 12:33:25;;;;;;;0.30;0.30;;;11.20;99.90;;;;;;4937071;29;20417;-65
2024/01/02 12:36:17;;;;;;;0.30;0.30;;;11.20;99.90;;;;;;4936668;29;20432;-65
2024/01/02 12:38:51;;;;;;;0.30;0.20;;;11.20;99.90;;;;;;4936974;29;20390;-65
2024/01/02 12:41:26;;;;;;;0.30;0.30;;;11.20;99.90;;;;;;4952954;29;20426;-65
2024/01/02 12:43:56;;;;;;;0.30;0.20;;;11.20;99.90;;;;;;4956147;28;20497;-65
2024/01/02 12:46:33;;;;;;;0.30;0.30;;;11.10;99.90;;;;;;4955553;28;20423;-64
2024/01/02 12:49:08;;;;;;;0.30;0.30;;;11.10;99.90;;;;;;4956101;29;20437;-65
2024/01/02 12:51:36;;;;;;;0.30;0.30;;;11.10;99.90;;;;;;4955919;28;20461;-66
2024/01/02 12:54:04;;;;;;;0.30;0.20;;;11.10;99.90;;;;;;4953223;29;20499;-64
2024/01/02 12:56:34;;;;;;;0.30;0.30;;;11.10;99.90;;;;;;4936405;29;20438;-65
2024/01/02 12:59:04;;;;;;;0.30;0.20;;;11.10;99.90;;;;;;4936802;29;20394;-63
2024/01/02 13:01:34;;;;;;;0.30;0.30;;;11.10;99.90;;;;;;4936532;29;20416;-65
2024/01/02 13:04:00;;;;;;;0.30;0.20;;;11.10;99.90;;;;;;4936562;29;20444;-65
2024/01/02 13:06:26;;;;;;;0.30;0.30;;;11.10;99.90;;;;;;4935979;29;20921;-65
2024/01/02 13:08:53;;;;;;;0.30;0.30;;;11.10;99.90;;;;;;4935225;29;20174;-65
2024/01/02 13:11:20;;;;;;;0.30;0.30;;;11.20;99.90;;;;;;4935979;29;20466;-64
2024/01/02 13:13:50;;;;;;;0.40;0.40;;;11.20;99.90;;;;;;4936507;29;20438;-63
2024/01/02 13:16:19;;;;;;;0.30;0.30;;;11.20;99.90;;;;;;4935954;29;20436;-65
2024/01/02 13:18:48;;;;;;;0.30;0.30;;;11.20;99.90;;;;;;4936288;29;20516;-63
2024/01/02 13:21:15;;;;;;;0.30;0.20;;;11.20;99.90;;;;;;4936258;29;20454;-64
2024/01/02 13:23:54;;;;;;;0.37;0.37;;;11.20;99.90;;;;;;4934568;29;20423;-65
2024/01/02 13:26:21;;;;;;;0.60;0.60;;;11.20;99.90;;;;;;4914969;29;20467;-65
2024/01/02 13:28:51;;;;;;;0.30;0.30;;;11.20;99.90;;;;;;4917173;29;20419;-65
2024/01/02 13:31:27;;;;;;;0.30;0.30;;;11.20;99.90;;;;;;4917114;29;20206;-64
2024/01/02 13:33:53;;;;;;;0.30;0.20;;;11.20;99.90;;;;;;4917187;29;20406;-65
2024/01/02 13:36:18;;;;;;;0.30;0.30;;;11.20;99.90;;;;;;4915602;29;20970;-64
2024/01/02 13:38:44;;;;;;;0.30;0.20;;;11.10;99.90;;;;;;4916876;29;20170;-65
2024/01/02 13:41:10;;;;;;;0.33;0.33;;;11.10;99.90;;;;;;4917453;29;20641;-64
2024/01/02 13:43:37;;;;;;;0.30;0.20;;;11.10;99.90;;;;;;4917086;29;20570;-65
2024/01/02 13:46:09;;;;;;;0.30;0.27;;;11.00;99.90;;;;;;4916737;29;20434;-65
2024/01/02 13:48:36;;;;;;;0.30;0.30;;;11.10;99.90;;;;;;4917169;29;20806;-64
2024/01/02 13:51:07;;;;;;;0.30;0.30;;;11.00;99.90;;;;;;4917145;29;20545;-64
2024/01/02 13:54:02;;;;;;;0.30;0.30;;;11.00;99.90;;;;;;4921172;29;20416;-65
2024/01/02 13:56:32;;;;;;;0.30;0.30;;;10.90;99.90;;;;;;4935553;29;20449;-65
2024/01/02 13:59:06;;;;;;;0.30;0.30;;;10.90;99.90;;;;;;4936035;29;20295;-65
2024/01/02 14:01:38;;;;;;;0.30;0.20;;;11.00;99.90;;;;;;4935966;29;20420;-65
2024/01/02 14:04:05;;;;;;;0.30;0.20;;;11.00;99.90;;;;;;4935861;29;20457;-65
2024/01/02 14:06:38;;;;;;;0.30;0.30;;;10.90;99.90;;;;;;4935383;29;20434;-66
2024/01/02 14:09:16;;;;;;;0.30;0.30;;;10.90;99.90;;;;;;4935826;29;20415;-65
2024/01/02 14:12:00;;;;;;;0.30;0.30;;;10.90;99.90;;;;;;4935590;29;20550;-65
2024/01/02 14:14:47;;;;;;;0.30;0.30;;;10.90;99.90;;;;;;4929887;29;20416;-66
2024/01/02 14:17:55;;;;;;;0.30;0.30;;;10.90;99.90;;;;;;4915545;29;20464;-65
2024/01/02 14:20:29;;;;;;;0.30;0.30;;;10.90;99.90;;;;;;4914255;29;20493;-65
2024/01/02 14:23:05;;;;;;;0.30;0.30;;;10.90;99.90;;;;;;4933070;29;20648;-64
2024/01/02 14:25:34;;;;;;;0.30;0.30;;;10.90;99.90;;;;;;4935338;29;20604;-65
2024/01/02 14:28:14;;;;;;;0.30;0.30;;;10.80;99.90;;;;;;4920449;29;20237;-65
2024/01/02 14:30:41;;;;;;;0.30;0.20;;;10.80;99.90;;;;;;4916784;29;20201;-65
2024/01/02 14:33:21;;;;;;;0.30;0.20;;;10.70;99.90;;;;;;4915319;29;20716;-65
2024/01/02 14:36:14;;;;;;;0.30;0.30;;;10.80;99.90;;;;;;4916235;29;20195;-65
2024/01/02 14:38:46;;;;;;;0.30;0.20;;;10.70;99.90;;;;;;4917630;29;20517;-64
2024/01/02 14:41:45;;;;;;;0.30;0.20;;;10.70;99.90;;;;;;4922469;29;20422;-64
2024/01/02 14:44:32;;;;;;;0.30;0.30;;;10.70;99.90;;;;;;4938395;29;20469;-66
2024/01/02 14:47:20;;;;;;;0.30;0.30;;;10.60;99.90;;;;;;4939068;29;20587;-65
2024/01/02 14:49:53;;;;;;;0.40;0.40;;;10.60;99.90;;;;;;4909776;29;20300;-66
2024/01/02 14:52:56;;;;;;;0.30;0.30;;;10.60;99.90;;;;;;4939018;29;20430;-65
2024/01/02 14:56:03;;;;;;;0.30;0.30;;;10.50;99.90;;;;;;4938402;29;20426;-65
2024/01/02 14:58:58;;;;;;;0.30;0.20;;;10.50;99.90;;;;;;4929022;29;20183;-63
2024/01/02 15:01:54;;;;;;;0.30;0.20;;;10.50;99.90;;;;;;4906471;29;20191;-65
2024/01/02 15:04:40;;;;;;;0.30;0.28;;;10.40;99.90;;;;;;4929846;29;20186;-65
2024/01/02 15:07:11;;;;;;;0.40;0.40;;;10.40;99.90;;;;;;4938614;29;20667;-65
2024/01/02 15:09:51;;;;;;;0.30;0.20;;;10.40;99.90;;;;;;4938499;29;20177;-64
2024/01/02 15:12:22;;;;;;;0.30;0.30;;;10.40;99.90;;;;;;4937741;29;20205;-65
2024/01/02 15:15:12;;;;;;;0.30;0.30;;;10.40;99.90;;;;;;4938234;29;20262;-65
2024/01/02 15:17:50;;;;;;;0.30;0.20;;;10.40;99.90;;;;;;4938702;29;20193;-65
2024/01/02 15:20:43;;;;;;;0.30;0.30;;;10.40;99.90;;;;;;4938589;29;20205;-65
2024/01/02 15:23:33;;;;;;;0.30;0.30;;;10.40;99.90;;;;;;4938654;29;20170;-65
2024/01/02 15:26:32;;;;;;;0.30;0.20;;;10.40;99.90;;;;;;4936238;29;20288;-65
2024/01/02 15:29:08;;;;;;;0.30;0.30;;;10.40;99.90;;;;;;4938413;29;20205;-64
2024/01/02 15:31:42;;;;;;;0.30;0.30;;;10.40;99.90;;;;;;4938287;29;20205;-65
2024/01/02 15:34:40;;;;;;;0.30;0.30;;;10.40;99.90;;;;;;4938090;29;20165;-66
2024/01/02 15:37:14;;;;;;;0.30;0.30;;;10.40;99.90;;;;;;4938207;29;20194;-65
2024/01/02 15:39:46;;;;;;;0.30;0.30;;;10.40;99.90;;;;;;4938166;29;20166;-64
2024/01/02 15:42:23;;;;;;;0.30;0.30;;;10.40;99.90;;;;;;4919507;29;20831;-65
2024/01/02 15:44:55;;;;;;;0.30;0.30;;;10.50;99.90;;;;;;4918972;29;20587;-63
2024/01/02 15:47:51;;;;;;;0.30;0.20;;;10.40;99.90;;;;;;4918916;29;20171;-65
2024/01/02 15:50:25;;;;;;;0.30;0.30;;;10.50;99.90;;;;;;4918437;29;20202;-64
2024/01/02 15:52:57;;;;;;;0.30;0.30;;;10.50;99.90;;;;;;4918813;29;20263;-65
2024/01/02 15:55:36;;;;;;;0.30;0.30;;;10.50;99.90;;;;;;4918266;29;20191;-64
2024/01/02 15:58:08;;;;;;;0.30;0.30;;;10.50;99.90;;;;;;4918826;29;20195;-63
2024/01/02 16:00:37;;;;;;;0.30;0.20;;;10.50;99.90;;;;;;4918772;29;20174;-65
2024/01/02 16:03:15;;;;;;;0.38;0.38;;;10.50;99.90;;;;;;4918593;29;20211;-65
2024/01/02 16:05:52;;;;;;;0.30;0.20;;;10.50;99.90;;;;;;4918256;29;20596;-64
2024/01/02 16:08:50;;;;;;;0.30;0.30;;;10.50;99.90;;;;;;4918558;29;20209;-64
2024/01/02 16:11:45;;;;;;;0.30;0.25;;;10.50;99.90;;;;;;4933288;29;20280;-65
2024/01/02 16:14:39;;;;;;;0.30;0.20;;;10.50;99.90;;;;;;4937346;29;20177;-65
2024/01/02 16:17:30;;;;;;;0.30;0.30;;;10.60;99.90;;;;;;4938035;29;20208;-64
2024/01/02 16:20:18;;;;;;;0.30;0.30;;;10.50;99.90;;;;;;4938075;29;20171;-65
2024/01/02 16:23:03;;;;;;;0.30;0.30;;;10.50;99.90;;;;;;4937591;29;20173;-65
2024/01/02 16:25:50;;;;;;;0.30;0.30;;;10.50;99.90;;;;;;4925716;29;20287;-65
2024/01/02 16:28:51;;;;;;;0.30;0.30;;;10.50;99.90;;;;;;4918545;29;20568;-65
2024/01/02 16:31:46;;;;;;;0.30;0.30;;;10.50;99.90;;;;;;4909847;29;20226;-64
2024/01/02 16:34:38;;;;;;;0.30;0.30;;;10.50;99.90;;;;;;4917927;29;20172;-64
2024/01/02 16:37:27;;;;;;;0.30;0.30;;;10.50;99.90;;;;;;4918049;29;20563;-64
2024/01/02 16:39:53;;;;;;;0.30;0.30;;;10.50;99.90;;;;;;4926071;29;20177;-65
2024/01/02 16:42:42;;;;;;;0.30;0.30;;;10.60;99.90;;;;;;4936900;29;20179;-65
2024/01/02 16:45:09;;;;;;;0.30;0.30;;;10.60;99.90;;;;;;4933255;29;20530;-66
2024/01/02 16:47:37;;;;;;;0.30;0.30;;;10.60;99.90;;;;;;4936692;29;20194;-65
2024/01/02 16:50:03;;;;;;;0.30;0.30;;;10.60;99.90;;;;;;4935269;29;20432;-66
2024/01/02 16:52:35;;;;;;;0.40;0.40;;;10.60;99.90;;;;;;4935627;29;20186;-64
2024/01/02 16:55:08;;;;;;;0.30;0.20;;;10.60;99.90;;;;;;4925288;29;20183;-64
2024/01/02 16:57:35;;;;;;;0.30;0.30;;;10.60;99.90;;;;;;4918339;29;20170;-65
2024/01/02 17:00:05;;;;;;;0.30;0.30;;;10.60;99.90;;;;;;4916677;29;20521;-65
2024/01/02 17:02:35;;;;;;;0.30;0.30;;;10.50;99.90;;;;;;4915887;29;20942;-65
2024/01/02 17:05:04;;;;;;;0.30;0.30;;;10.60;99.90;;;;;;4917143;29;20178;-64
2024/01/02 17:07:32;;;;;;;0.30;0.20;;;10.50;99.90;;;;;;4917510;29;20179;-64
2024/01/02 17:09:58;;;;;;;0.20;0.20;;;10.50;99.90;;;;;;4929875;29;20185;-66
2024/01/02 17:12:33;;;;;;;0.30;0.20;;;10.50;99.90;;;;;;4936735;29;20169;-65
2024/01/02 17:14:59;;;;;;;0.30;0.30;;;10.50;99.90;;;;;;4936308;29;20423;-66
2024/01/02 17:17:24;;;;;;;0.30;0.20;;;10.50;99.90;;;;;;4936273;29;20639;-65
2024/01/02 17:19:52;;;;;;;0.30;0.30;;;10.40;99.90;;;;;;4934960;29;20177;-66
2024/01/02 17:22:20;;;;;;;0.30;0.30;;;10.40;99.90;;;;;;4936134;29;20178;-65
2024/01/02 17:24:47;;;;;;;0.30;0.30;;;10.30;99.90;;;;;;4922401;29;20189;-65
2024/01/02 17:27:15;;;;;;;0.50;0.50;;;10.30;99.90;;;;;;4917053;29;20205;-65
2024/01/02 17:29:42;;;;;;;0.30;0.20;;;10.30;99.90;;;;;;4917185;29;20175;-65
2024/01/02 17:32:08;;;;;;;0.30;0.30;;;10.20;99.90;;;;;;4922325;29;20565;-64
2024/01/02 17:34:34;;;;;;;0.30;0.20;;;10.20;99.90;;;;;;4934412;29;20177;-64
2024/01/02 17:37:00;;;;;;;0.30;0.20;;;10.20;99.90;;;;;;4935991;29;20206;-65
2024/01/02 17:39:31;;;;;;;0.30;0.30;;;10.10;99.90;;;;;;4936152;29;20167;-65
2024/01/02 17:41:58;;;;;;;0.30;0.30;;;10.10;99.90;;;;;;4936069;29;20178;-66
2024/01/02 17:44:25;;;;;;;0.30;0.20;;;10.10;99.90;;;;;;4935581;29;20169;-65
2024/01/02 17:46:51;;;;;;;0.30;0.30;;;10.10;99.90;;;;;;4930638;29;20293;-64
2024/01/02 17:49:20;;;;;;;0.30;0.30;;;10.10;99.90;;;;;;4917002;29;20201;-65
2024/01/02 17:51:46;;;;;;;0.30;0.30;;;10.00;99.90;;;;;;4915524;29;20216;-67
2024/01/02 17:54:13;;;;;;;0.40;0.40;;;10.00;99.90;;;;;;4916587;29;20241;-65
2024/01/02 17:56:39;;;;;;;0.30;0.30;;;10.00;99.90;;;;;;4916774;29;20294;-65
2024/01/02 17:59:24;;;;;;;0.30;0.30;;;10.00;99.90;;;;;;4916729;29;20403;-66
2024/01/02 18:02:24;;;;;;;0.30;0.30;;;10.00;99.90;;;;;;4917471;29;20194;-67
2024/01/02 18:05:04;;;;;;;0.30;0.30;;;10.00;99.90;;;;;;4922323;29;20186;-66
2024/01/02 18:07:35;;;;;;;0.30;0.30;;;10.00;99.90;;;;;;4935990;29;20664;-68
2024/01/02 18:10:11;;;;;;;0.30;0.20;;;10.00;99.90;;;;;;4935868;29;20260;-72
2024/01/02 18:12:55;;;;;;;0.30;0.30;;;10.00;99.90;;;;;;4936787;29;20216;-67
2024/01/02 18:15:44;;;;;;;0.30;0.20;;;10.00;99.90;;;;;;4939010;29;20564;-66
2024/01/02 18:18:39;;;;;;;0.30;0.30;;;10.00;99.90;;;;;;4920514;29;20175;-66
2024/01/02 18:21:27;;;;;;;0.30;0.30;;;9.90;99.90;;;;;;4869638;29;20660;-66
2024/01/02 18:24:15;;;;;;;0.30;0.20;;;9.90;99.90;;;;;;4921279;29;20193;-67
2024/01/02 18:26:51;;;;;;;0.30;0.30;;;9.90;99.90;;;;;;4945763;29;20612;-69
2024/01/02 18:29:25;;;;;;;0.30;0.20;;;9.90;99.90;;;;;;4958618;28;20176;-65
2024/01/02 18:32:00;;;;;;;0.30;0.30;;;9.90;99.90;;;;;;4958460;29;20200;-64